createdAt,value
2018-08-18T07:58:55.531Z,22.70
2018-08-18T08:04:04.152Z,23.00
2018-08-18T08:09:09.994Z,23.00
2018-08-18T08:14:15.201Z,23.30
2018-08-18T08:19:20.309Z,23.30
2018-08-18T08:24:26.684Z,23.50
2018-08-18T08:29:47.072Z,23.60
2018-08-18T08:34:52.237Z,23.70
2018-08-18T08:39:57.615Z,23.80
2018-08-18T08:45:09.451Z,23.90
2018-08-18T08:50:17.283Z,24.20
2018-08-18T08:55:23.517Z,24.40
2018-08-18T09:00:28.549Z,24.50
2018-08-18T09:05:33.724Z,24.70
2018-08-18T09:10:38.887Z,24.90
2018-08-18T09:15:44.052Z,25.10
2018-08-18T09:20:49.268Z,25.30
2018-08-18T09:25:54.231Z,25.60
2018-08-18T09:30:59.216Z,26.00
2018-08-18T09:36:05.292Z,26.20
2018-08-18T09:41:10.108Z,26.20
2018-08-18T09:46:15.060Z,26.20
2018-08-18T09:51:19.977Z,26.40
2018-08-18T09:56:24.792Z,26.30
2018-08-18T10:01:29.652Z,26.20
2018-08-18T10:06:34.755Z,26.20
2018-08-18T10:11:40.522Z,26.30
2018-08-18T10:16:45.352Z,26.10
2018-08-18T10:21:50.293Z,27.00
2018-08-18T10:27:01.011Z,27.00
2018-08-18T10:32:06.213Z,26.30
2018-08-18T10:37:11.327Z,26.00
2018-08-18T10:42:17.943Z,26.60
2018-08-18T10:47:24.875Z,27.00
2018-08-18T10:52:41.264Z,28.10
2018-08-18T10:57:56.800Z,28.10
2018-08-18T11:03:03.077Z,28.40
2018-08-18T11:08:09.938Z,28.70
2018-08-18T11:13:15.174Z,29.00
2018-08-18T11:18:20.547Z,28.80
2018-08-18T11:23:25.577Z,28.90
2018-08-18T11:28:32.436Z,28.70
2018-08-18T11:34:39.708Z,28.60
2018-08-18T11:39:44.744Z,28.40
2018-08-18T11:44:49.644Z,27.90
2018-08-18T11:49:55.975Z,27.70
2018-08-18T11:55:02.021Z,27.80
2018-08-18T12:00:07.905Z,27.90
2018-08-18T12:05:13.060Z,28.20
2018-08-18T12:10:18.128Z,27.90
2018-08-18T12:15:23.444Z,28.30
2018-08-18T12:20:28.684Z,29.40
2018-08-18T12:25:34.041Z,31.70
2018-08-18T12:30:39.363Z,32.00
2018-08-18T12:35:45.066Z,31.90
2018-08-18T12:40:50.219Z,32.00
2018-08-18T12:45:56.647Z,32.80
2018-08-18T12:51:01.859Z,33.10
2018-08-18T12:56:07.919Z,33.10
2018-08-18T13:01:14.015Z,32.00
2018-08-18T13:06:19.668Z,32.30
2018-08-18T13:11:24.843Z,33.50
2018-08-18T13:22:02.739Z,32.80
2018-08-18T13:27:08.198Z,33.10
2018-08-18T13:32:13.887Z,33.60
2018-08-18T13:37:19.432Z,32.70
2018-08-18T13:42:26.525Z,33.30
2018-08-18T13:47:31.839Z,33.60
2018-08-18T13:53:08.532Z,33.60
2018-08-18T13:58:13.639Z,34.10
2018-08-18T14:03:27.590Z,34.20
2018-08-18T14:08:32.881Z,33.00
2018-08-18T14:13:37.885Z,33.30
2018-08-18T14:18:43.448Z,33.40
2018-08-18T14:23:48.818Z,33.10
2018-08-18T14:28:55.510Z,33.50
2018-08-18T14:34:01.043Z,33.40
2018-08-18T14:39:06.900Z,34.20
2018-08-18T14:44:11.859Z,33.70
2018-08-18T14:49:16.899Z,33.90
2018-08-18T14:54:28.825Z,33.20
2018-08-18T14:59:43.296Z,30.40
2018-08-18T15:04:49.131Z,28.90
2018-08-18T15:09:59.141Z,28.40
2018-08-18T15:15:04.091Z,28.30
2018-08-18T15:20:09.321Z,27.90
2018-08-18T15:25:14.439Z,27.30
2018-08-18T15:30:19.690Z,27.10
2018-08-18T15:35:26.308Z,26.80
2018-08-18T15:40:32.235Z,26.70
2018-08-18T15:45:59.255Z,26.90
2018-08-18T15:51:05.779Z,27.90
2018-08-18T15:56:12.755Z,31.00
2018-08-18T16:01:19.170Z,32.20
2018-08-18T16:06:25.286Z,32.30
2018-08-18T16:11:30.390Z,31.90
2018-08-18T16:16:49.404Z,32.70
2018-08-18T16:21:54.881Z,29.80
2018-08-18T16:27:01.550Z,29.90
2018-08-18T16:32:21.771Z,31.50
2018-08-18T16:37:28.471Z,32.00
2018-08-18T16:42:34.084Z,31.60
2018-08-18T16:47:43.785Z,32.10
2018-08-18T16:52:49.553Z,30.20
2018-08-18T16:57:54.581Z,28.80
2018-08-18T17:02:59.489Z,30.10
2018-08-18T17:08:04.461Z,31.50
2018-08-18T17:13:09.332Z,32.50
2018-08-18T17:18:14.269Z,32.90
2018-08-18T17:23:20.770Z,31.70
2018-08-18T17:28:27.708Z,29.40
2018-08-18T17:33:33.481Z,28.00
2018-08-18T17:38:38.690Z,27.50
2018-08-18T17:43:43.641Z,27.00
2018-08-18T17:48:53.502Z,27.00
2018-08-18T17:53:58.463Z,26.60
2018-08-18T17:59:03.648Z,26.70
2018-08-18T18:04:08.626Z,26.70
2018-08-18T18:14:54.950Z,26.30
2018-08-18T18:20:01.609Z,26.00
2018-08-18T18:25:08.703Z,25.90
2018-08-18T18:30:14.194Z,25.90
2018-08-18T18:35:21.370Z,26.00
2018-08-18T18:40:26.227Z,25.90
2018-08-18T18:45:31.393Z,25.90
2018-08-18T18:50:36.275Z,25.70
2018-08-18T18:55:46.468Z,25.60
2018-08-18T19:00:57.192Z,25.30
2018-08-18T19:06:02.704Z,25.10
2018-08-18T19:11:07.685Z,24.90
2018-08-18T19:16:12.532Z,24.80
2018-08-18T19:21:17.662Z,24.60
2018-08-18T19:26:22.664Z,24.40
2018-08-18T19:31:32.520Z,24.30
2018-08-18T19:36:43.353Z,24.20
2018-08-18T19:41:48.341Z,24.10
2018-08-18T19:46:54.382Z,24.00
2018-08-18T19:52:03.403Z,23.90
2018-08-18T19:57:08.360Z,23.80
2018-08-18T20:02:13.260Z,23.90
2018-08-18T20:07:18.799Z,23.80
2018-08-18T20:12:23.986Z,23.70
2018-08-18T20:17:29.864Z,23.60
2018-08-18T20:22:34.959Z,23.60
2018-08-18T20:27:40.791Z,23.50
2018-08-18T20:32:47.205Z,23.50
2018-08-18T20:37:52.799Z,23.40
2018-08-18T20:42:58.093Z,23.20
2018-08-18T20:48:03.074Z,23.20
2018-08-18T20:53:14.724Z,23.20
2018-08-18T20:58:19.881Z,23.20
2018-08-18T21:03:36.264Z,23.20
2018-08-18T21:08:41.505Z,23.50
2018-08-18T21:13:48.699Z,23.40
2018-08-18T21:18:55.004Z,23.50
2018-08-18T21:24:01.116Z,23.60
2018-08-18T21:29:08.673Z,23.60
2018-08-18T21:34:13.589Z,23.50
2018-08-18T21:39:18.844Z,23.40
2018-08-18T21:44:24.275Z,23.30
2018-08-18T21:49:29.260Z,23.20
2018-08-18T21:54:35.218Z,23.20
2018-08-18T21:59:53.525Z,23.30
2018-08-18T22:04:58.710Z,23.20
2018-08-18T22:10:03.856Z,23.30
2018-08-18T22:15:17.140Z,23.30
2018-08-18T22:20:23.402Z,23.20
2018-08-18T22:25:28.467Z,23.10
2018-08-18T22:30:33.362Z,23.10
2018-08-18T22:35:44.318Z,23.10
2018-08-18T22:40:49.265Z,23.30
2018-08-18T22:45:54.277Z,23.30
2018-08-18T22:50:59.663Z,23.30
2018-08-18T22:56:06.123Z,23.30
2018-08-18T23:01:11.186Z,23.50
2018-08-18T23:06:16.510Z,23.40
2018-08-18T23:11:21.552Z,23.50
2018-08-18T23:16:26.424Z,23.50
2018-08-18T23:21:31.592Z,23.40
2018-08-18T23:26:36.484Z,23.40
2018-08-18T23:31:41.321Z,23.50
2018-08-18T23:36:46.239Z,23.30
2018-08-18T23:41:59.933Z,23.30
2018-08-18T23:47:05.122Z,23.20
2018-08-18T23:52:10.027Z,23.20
2018-08-18T23:57:19.347Z,23.30
